Time;durP1;ratioP1;P1;durP2;ratioP2;P2;SDS_P1;SDS_P2;PMS_P1;PMS_P2;Temp;Humidity;BMP_temperature;BMP_pressure;BME280_temperature;BME280_humidity;BME280_pressure;Samples;Min_cycle;Max_cycle;Signal;HPM_P1;HPM_P2
2022/05/13 10:08:23;;;;;;;0.20;0.20;;;;;;;;;;5109959;27;20108;-88
2022/05/13 10:13:58;;;;;;;0.10;0.10;;;;;;;;;;5109685;28;20078;-91
2022/05/13 10:16:28;;;;;;;0.10;0.10;;;;;;;;;;5109434;28;20031;-91
2022/05/13 10:19:00;;;;;;;0.10;0.10;;;;;;;;;;5104788;28;20020;-86
2022/05/13 10:21:28;;;;;;;0.10;0.10;;;;;;;;;;5109572;28;20098;-85
2022/05/13 10:24:05;;;;;;;0.10;0.10;;;;;;;;;;5121369;27;20534;-79
2022/05/13 10:26:37;;;;;;;0.10;0.10;;;;;;;;;;5127094;27;20035;-79
2022/05/13 10:29:21;;;;;;;0.10;0.10;;;;;;;;;;5122476;27;20027;-82
2022/05/13 10:31:49;;;;;;;0.10;0.10;;;;;;;;;;5120022;27;20135;-82
2022/05/13 10:34:34;;;;;;;0.10;0.10;;;;;;;;;;5112363;27;20027;-83
2022/05/13 10:37:05;;;;;;;0.10;0.10;;;;;;;;;;5093098;28;20015;-82
2022/05/13 10:39:44;;;;;;;0.10;0.10;;;;;;;;;;5118230;28;20059;-81
2022/05/13 10:42:16;;;;;;;0.10;0.10;;;;;;;;;;5113972;27;20026;-83
2022/05/13 10:44:48;;;;;;;0.10;0.10;;;;;;;;;;5125328;27;20048;-82
2022/05/13 10:47:21;;;;;;;0.10;0.10;;;;;;;;;;5121527;27;20043;-86
2022/05/13 10:49:47;;;;;;;0.10;0.10;;;;;;;;;;5115974;28;20090;-81
2022/05/13 10:52:22;;;;;;;0.10;0.10;;;;;;;;;;5114170;28;20020;-77
2022/05/13 10:54:51;;;;;;;0.10;0.10;;;;;;;;;;5111497;28;20055;-86
2022/05/13 10:57:20;;;;;;;0.10;0.10;;;;;;;;;;5124709;28;20023;-81
2022/05/13 11:00:06;;;;;;;0.10;0.10;;;;;;;;;;5120895;28;20045;-80
2022/05/13 11:02:32;;;;;;;0.10;0.10;;;;;;;;;;5121191;27;20016;-89
2022/05/13 11:05:05;;;;;;;0.10;0.10;;;;;;;;;;5129232;27;20069;-91
2022/05/13 11:07:54;;;;;;;0.10;0.10;;;;;;;;;;5115364;27;20055;-85
2022/05/13 11:10:20;;;;;;;0.10;0.10;;;;;;;;;;5119389;28;20024;-91
2022/05/13 11:12:56;;;;;;;0.10;0.10;;;;;;;;;;5114017;28;20482;-89
2022/05/13 11:15:22;;;;;;;;;;;;;;;;;;5120030;28;20027;-88
2022/05/13 11:17:48;;;;;;;;;;;;;;;;;;5115847;28;20015;-90
2022/05/13 11:20:23;;;;;;;0.10;0.10;;;;;;;;;;5102006;28;19951;-89
2022/05/13 11:22:58;;;;;;;0.10;0.10;;;;;;;;;;5093398;28;20020;-82
2022/05/13 11:28:19;;;;;;;0.10;0.10;;;;;;;;;;5129738;28;20064;-95
2022/05/13 11:30:52;;;;;;;0.10;0.10;;;;;;;;;;5127788;28;20030;-85
2022/05/13 11:33:18;;;;;;;0.10;0.10;;;;;;;;;;5113318;28;20111;-79
2022/05/13 11:35:49;;;;;;;0.10;0.10;;;;;;;;;;5103998;28;20059;-87
2022/05/13 11:38:18;;;;;;;0.10;0.10;;;;;;;;;;5112358;28;20490;-91
2022/05/13 11:40:51;;;;;;;0.10;0.10;;;;;;;;;;5095416;28;20110;-89
2022/05/13 11:43:32;;;;;;;0.10;0.10;;;;;;;;;;5095739;28;20068;-87
2022/05/13 11:46:04;;;;;;;0.10;0.10;;;;;;;;;;5096981;28;20031;-89
2022/05/13 11:48:38;;;;;;;0.10;0.10;;;;;;;;;;5096589;28;20141;-89
2022/05/13 11:51:10;;;;;;;0.10;0.10;;;;;;;;;;5095020;28;20027;-89
2022/05/13 11:53:42;;;;;;;0.10;0.10;;;;;;;;;;5110502;28;20507;-89
2022/05/13 11:56:14;;;;;;;0.10;0.10;;;;;;;;;;5116176;28;20016;-88
2022/05/13 11:58:51;;;;;;;0.10;0.10;;;;;;;;;;5107703;28;20027;-83
2022/05/13 12:01:43;;;;;;;0.10;0.10;;;;;;;;;;5100363;28;20027;-92
2022/05/13 12:04:30;;;;;;;0.10;0.10;;;;;;;;;;5109060;28;20030;-86
2022/05/13 12:06:58;;;;;;;0.10;0.10;;;;;;;;;;5092549;28;20036;-84
2022/05/13 12:09:27;;;;;;;0.10;0.10;;;;;;;;;;5099621;28;20024;-89
2022/05/13 12:12:08;;;;;;;0.10;0.10;;;;;;;;;;5098502;28;20078;-85
2022/05/13 12:14:39;;;;;;;0.10;0.10;;;;;;;;;;5101012;28;20060;-87
2022/05/13 12:17:05;;;;;;;0.10;0.10;;;;;;;;;;5099905;28;20024;-83
2022/05/13 12:19:31;;;;;;;0.10;0.10;;;;;;;;;;5098455;28;20016;-83
2022/05/13 12:22:06;;;;;;;2.92;1.65;;;;;;;;;;5106037;28;20024;-89
2022/05/13 12:24:52;;;;;;;0.10;0.10;;;;;;;;;;5103477;28;20155;-89
2022/05/13 12:27:28;;;;;;;0.10;0.10;;;;;;;;;;5099853;28;20053;-81
2022/05/13 12:29:53;;;;;;;;;;;;;;;;;;5098436;28;20404;-87
2022/05/13 12:32:24;;;;;;;0.10;0.10;;;;;;;;;;5094869;28;19953;-83
2022/05/13 12:37:43;;;;;;;0.10;0.10;;;;;;;;;;5089587;28;20093;-81
2022/05/13 12:40:12;;;;;;;0.10;0.10;;;;;;;;;;5098630;28;20142;-80
2022/05/13 12:42:42;;;;;;;0.10;0.10;;;;;;;;;;5096649;28;20032;-82
2022/05/13 12:45:21;;;;;;;0.10;0.10;;;;;;;;;;5096014;28;20035;-85
2022/05/13 12:48:08;;;;;;;0.10;0.10;;;;;;;;;;5093914;28;20062;-85
2022/05/13 12:50:53;;;;;;;0.10;0.10;;;;;;;;;;5094668;28;20510;-82
2022/05/13 12:53:28;;;;;;;0.10;0.10;;;;;;;;;;5102673;28;20490;-86
2022/05/13 12:55:56;;;;;;;0.15;0.15;;;;;;;;;;5098361;28;20507;-85
2022/05/13 12:58:23;;;;;;;0.10;0.10;;;;;;;;;;5107416;28;20027;-82
2022/05/13 13:00:50;;;;;;;0.10;0.10;;;;;;;;;;5106028;28;20012;-82
2022/05/13 13:03:18;;;;;;;0.10;0.10;;;;;;;;;;5093070;28;20106;-87
2022/05/13 13:05:47;;;;;;;0.10;0.10;;;;;;;;;;5101673;28;20026;-81
2022/05/13 13:08:14;;;;;;;0.10;0.10;;;;;;;;;;5094547;28;20039;-82
2022/05/13 13:10:59;;;;;;;0.10;0.10;;;;;;;;;;5098939;28;20024;-86
2022/05/13 13:13:40;;;;;;;0.10;0.10;;;;;;;;;;5091584;28;20399;-84
2022/05/13 13:16:08;;;;;;;0.10;0.10;;;;;;;;;;5106845;28;20031;-88
2022/05/13 13:18:35;;;;;;;0.00;0.00;;;;;;;;;;5100911;28;20094;-79
2022/05/13 13:21:04;;;;;;;0.10;0.10;;;;;;;;;;5108687;28;20047;-82
2022/05/13 13:23:33;;;;;;;0.10;0.10;;;;;;;;;;5102259;28;20394;-84
2022/05/13 13:26:01;;;;;;;0.10;0.10;;;;;;;;;;5097668;28;20027;-87
2022/05/13 13:28:35;;;;;;;0.00;0.00;;;;;;;;;;5100402;28;20065;-86
2022/05/13 13:31:11;;;;;;;0.10;0.10;;;;;;;;;;5105871;28;20494;-85
2022/05/13 13:33:49;;;;;;;0.10;0.10;;;;;;;;;;5081443;28;20071;-86
2022/05/13 13:36:23;;;;;;;0.10;0.10;;;;;;;;;;5091626;28;20027;-86
2022/05/13 13:38:51;;;;;;;0.10;0.10;;;;;;;;;;5095464;28;20556;-87
2022/05/13 13:41:31;;;;;;;0.10;0.10;;;;;;;;;;5093238;27;20042;-88
2022/05/13 13:43:58;;;;;;;0.10;0.10;;;;;;;;;;5098028;28;20085;-89
2022/05/13 13:46:45;;;;;;;0.10;0.10;;;;;;;;;;5098726;28;20039;-85
2022/05/13 13:49:17;;;;;;;0.10;0.10;;;;;;;;;;5095323;28;20030;-85
2022/05/13 13:51:47;;;;;;;0.00;0.00;;;;;;;;;;5094548;28;20024;-82
2022/05/13 13:54:17;;;;;;;0.10;0.10;;;;;;;;;;5101282;28;20118;-87
2022/05/13 13:56:55;;;;;;;0.10;0.10;;;;;;;;;;5092454;28;20032;-84
2022/05/13 13:59:32;;;;;;;0.10;0.10;;;;;;;;;;5102239;28;20132;-87
2022/05/13 14:01:59;;;;;;;0.10;0.10;;;;;;;;;;5104461;28;20016;-81
2022/05/13 14:04:27;;;;;;;0.10;0.10;;;;;;;;;;5109381;28;20019;-82
2022/05/13 14:06:54;;;;;;;0.10;0.10;;;;;;;;;;5101164;28;20122;-82
2022/05/13 14:09:34;;;;;;;0.10;0.10;;;;;;;;;;5104288;28;20448;-86
2022/05/13 14:12:12;;;;;;;0.10;0.10;;;;;;;;;;5088899;28;20022;-82
2022/05/13 14:14:46;;;;;;;0.10;0.10;;;;;;;;;;5105970;28;20042;-89
2022/05/13 14:17:16;;;;;;;0.10;0.10;;;;;;;;;;5098528;28;20024;-87
2022/05/13 14:19:46;;;;;;;0.10;0.10;;;;;;;;;;5100146;28;20055;-82
2022/05/13 14:22:12;;;;;;;0.10;0.10;;;;;;;;;;5097160;28;20500;-81
2022/05/13 14:24:43;;;;;;;0.10;0.10;;;;;;;;;;5090043;28;20099;-80
2022/05/13 14:27:20;;;;;;;0.00;0.00;;;;;;;;;;5102269;28;20036;-84
2022/05/13 14:29:46;;;;;;;0.10;0.10;;;;;;;;;;5098642;28;20025;-84
2022/05/13 14:32:15;;;;;;;0.00;0.00;;;;;;;;;;5094963;28;20115;-81
2022/05/13 14:34:41;;;;;;;0.10;0.10;;;;;;;;;;5093190;28;20088;-80
2022/05/13 14:37:09;;;;;;;0.10;0.10;;;;;;;;;;5097824;28;20023;-83
2022/05/13 14:39:51;;;;;;;0.10;0.10;;;;;;;;;;5098390;28;20024;-80
2022/05/13 14:42:17;;;;;;;0.10;0.10;;;;;;;;;;5101360;28;20043;-79
2022/05/13 14:44:45;;;;;;;0.10;0.10;;;;;;;;;;5101632;28;20027;-80
2022/05/13 14:47:26;;;;;;;0.10;0.10;;;;;;;;;;5107151;28;20032;-80
2022/05/13 14:49:52;;;;;;;0.10;0.10;;;;;;;;;;5100691;28;20016;-80
2022/05/13 14:52:25;;;;;;;0.10;0.10;;;;;;;;;;5105195;28;20031;-80
2022/05/13 14:54:51;;;;;;;0.00;0.00;;;;;;;;;;5086730;28;20012;-85
2022/05/13 14:57:18;;;;;;;0.10;0.10;;;;;;;;;;5089924;28;20024;-82
2022/05/13 14:59:50;;;;;;;0.10;0.10;;;;;;;;;;5101879;28;20703;-79
2022/05/13 15:02:28;;;;;;;0.00;0.00;;;;;;;;;;5096221;28;20028;-80
2022/05/13 15:04:56;;;;;;;0.00;0.00;;;;;;;;;;5097273;28;20073;-82
2022/05/13 15:07:36;;;;;;;0.10;0.10;;;;;;;;;;5105387;28;20381;-79
2022/05/13 15:10:02;;;;;;;0.10;0.10;;;;;;;;;;5103706;28;20107;-80
2022/05/13 15:12:29;;;;;;;0.10;0.10;;;;;;;;;;5094896;28;20162;-82
2022/05/13 15:14:56;;;;;;;0.00;0.00;;;;;;;;;;5108121;28;20055;-85
2022/05/13 15:17:23;;;;;;;0.10;0.10;;;;;;;;;;5105789;28;20032;-79
2022/05/13 15:19:49;;;;;;;0.00;0.00;;;;;;;;;;5094722;28;20024;-80
2022/05/13 15:22:16;;;;;;;0.10;0.10;;;;;;;;;;5094936;28;20107;-79
2022/05/13 15:24:44;;;;;;;0.10;0.10;;;;;;;;;;5101321;28;20038;-79
2022/05/13 15:27:13;;;;;;;0.10;0.10;;;;;;;;;;5113898;28;20139;-81
2022/05/13 15:29:41;;;;;;;0.10;0.10;;;;;;;;;;5103262;28;20020;-80
2022/05/13 15:32:09;;;;;;;0.03;0.03;;;;;;;;;;5108407;28;20028;-81
2022/05/13 15:34:36;;;;;;;0.10;0.10;;;;;;;;;;5107394;28;20031;-81
2022/05/13 15:37:02;;;;;;;0.08;0.08;;;;;;;;;;5106289;28;20020;-82
2022/05/13 15:39:28;;;;;;;0.00;0.00;;;;;;;;;;5093506;28;20020;-83
2022/05/13 15:41:54;;;;;;;0.10;0.10;;;;;;;;;;5101345;28;20050;-82
2022/05/13 15:44:21;;;;;;;0.10;0.10;;;;;;;;;;5106067;28;20483;-84
2022/05/13 15:46:47;;;;;;;0.10;0.10;;;;;;;;;;5096801;27;20036;-86
2022/05/13 15:54:43;;;;;;;0.10;0.10;;;;;;;;;;5107019;28;20089;-87
2022/05/13 15:57:09;;;;;;;0.10;0.10;;;;;;;;;;5102682;28;20089;-86
2022/05/13 15:59:36;;;;;;;0.10;0.10;;;;;;;;;;5093871;28;20388;-83
2022/05/13 16:02:02;;;;;;;0.00;0.00;;;;;;;;;;5095179;28;20085;-81
2022/05/13 16:04:28;;;;;;;0.10;0.10;;;;;;;;;;5093986;28;20537;-92
2022/05/13 16:06:54;;;;;;;0.10;0.10;;;;;;;;;;5092625;28;20424;-83
2022/05/13 16:09:20;;;;;;;0.10;0.10;;;;;;;;;;5096444;28;20035;-82
2022/05/13 16:11:49;;;;;;;0.10;0.10;;;;;;;;;;5093728;28;20028;-80
2022/05/13 16:14:19;;;;;;;0.10;0.10;;;;;;;;;;5095972;28;20032;-84
2022/05/13 16:16:49;;;;;;;0.10;0.10;;;;;;;;;;5092918;28;20513;-86
2022/05/13 16:19:21;;;;;;;0.10;0.10;;;;;;;;;;5099340;28;20023;-92
2022/05/13 16:21:48;;;;;;;0.10;0.10;;;;;;;;;;5091553;28;20016;-91
2022/05/13 16:24:16;;;;;;;0.10;0.10;;;;;;;;;;5095967;28;20050;-93
2022/05/13 16:26:42;;;;;;;0.10;0.10;;;;;;;;;;5100243;28;20054;-86
2022/05/13 16:29:08;;;;;;;0.00;0.00;;;;;;;;;;5095645;28;20484;-89
2022/05/13 16:31:34;;;;;;;0.10;0.10;;;;;;;;;;5110996;28;20034;-80
2022/05/13 16:34:00;;;;;;;0.00;0.00;;;;;;;;;;5100312;28;20544;-80
2022/05/13 16:36:28;;;;;;;0.10;0.10;;;;;;;;;;5090847;28;20101;-83
2022/05/13 16:38:54;;;;;;;0.03;0.03;;;;;;;;;;5093198;28;20180;-79
2022/05/13 16:41:20;;;;;;;0.10;0.10;;;;;;;;;;5089600;28;20032;-81
2022/05/13 16:43:47;;;;;;;0.10;0.10;;;;;;;;;;5107679;28;20032;-81
2022/05/13 16:46:15;;;;;;;0.10;0.10;;;;;;;;;;5097656;28;20066;-80
2022/05/13 16:48:42;;;;;;;0.00;0.00;;;;;;;;;;5092339;28;20036;-80
2022/05/13 16:51:09;;;;;;;0.00;0.00;;;;;;;;;;5093772;28;20020;-91
2022/05/13 16:53:36;;;;;;;0.10;0.10;;;;;;;;;;5108797;28;20027;-85
2022/05/13 16:56:02;;;;;;;0.10;0.10;;;;;;;;;;5092575;28;20015;-90
2022/05/13 16:58:28;;;;;;;0.10;0.10;;;;;;;;;;5093115;28;20024;-92
2022/05/13 17:00:54;;;;;;;0.10;0.10;;;;;;;;;;5092263;28;20093;-90
2022/05/13 17:03:20;;;;;;;0.10;0.10;;;;;;;;;;5109458;28;20023;-90
2022/05/13 17:05:47;;;;;;;0.10;0.10;;;;;;;;;;5092822;28;20027;-91
2022/05/13 17:08:13;;;;;;;0.10;0.10;;;;;;;;;;5093293;28;20040;-84
2022/05/13 17:16:13;;;;;;;0.10;0.10;;;;;;;;;;5085144;28;20096;-91
2022/05/13 17:21:27;;;;;;;0.00;0.00;;;;;;;;;;5092103;28;20518;-90
2022/05/13 17:23:53;;;;;;;0.10;0.10;;;;;;;;;;5085351;28;20077;-84
2022/05/13 17:26:19;;;;;;;0.10;0.10;;;;;;;;;;5094260;28;20028;-89
2022/05/13 17:28:45;;;;;;;0.10;0.10;;;;;;;;;;5091214;28;20540;-84
2022/05/13 17:31:12;;;;;;;0.10;0.10;;;;;;;;;;5102692;28;20437;-85
2022/05/13 17:33:38;;;;;;;0.10;0.10;;;;;;;;;;5112879;28;20020;-90
2022/05/13 17:36:05;;;;;;;0.10;0.10;;;;;;;;;;5113099;28;20094;-90
2022/05/13 17:38:34;;;;;;;0.10;0.10;;;;;;;;;;5099699;28;20024;-89
2022/05/13 17:41:00;;;;;;;0.10;0.10;;;;;;;;;;5091192;28;20020;-85
2022/05/13 17:43:27;;;;;;;0.00;0.00;;;;;;;;;;5094592;28;20020;-86
2022/05/13 17:45:53;;;;;;;0.10;0.10;;;;;;;;;;5096609;28;20016;-79
2022/05/13 17:48:20;;;;;;;0.00;0.00;;;;;;;;;;5098282;28;20516;-82
2022/05/13 17:50:47;;;;;;;0.10;0.10;;;;;;;;;;5092490;28;20555;-82
2022/05/13 17:53:18;;;;;;;0.10;0.10;;;;;;;;;;5090768;28;20412;-88
2022/05/13 17:55:44;;;;;;;0.05;0.05;;;;;;;;;;5090047;28;20024;-83
2022/05/13 17:58:10;;;;;;;0.00;0.00;;;;;;;;;;5090904;28;20381;-87
2022/05/13 18:00:37;;;;;;;0.10;0.10;;;;;;;;;;5089790;28;20032;-85
2022/05/13 18:03:03;;;;;;;0.10;0.10;;;;;;;;;;5090485;28;20177;-87
2022/05/13 18:05:29;;;;;;;0.10;0.10;;;;;;;;;;5091613;28;20028;-91
2022/05/13 18:07:55;;;;;;;0.00;0.00;;;;;;;;;;5079495;28;20113;-85
2022/05/13 18:10:21;;;;;;;0.03;0.03;;;;;;;;;;5088184;28;20028;-80
2022/05/13 18:12:47;;;;;;;0.00;0.00;;;;;;;;;;5095056;28;20028;-90
2022/05/13 18:15:13;;;;;;;0.00;0.00;;;;;;;;;;5092922;28;20020;-85
2022/05/13 18:17:39;;;;;;;0.10;0.10;;;;;;;;;;5106496;28;20042;-87
2022/05/13 18:20:06;;;;;;;0.10;0.10;;;;;;;;;;5112909;28;20039;-85
2022/05/13 18:22:32;;;;;;;0.10;0.10;;;;;;;;;;5119823;28;20024;-80
2022/05/13 18:24:58;;;;;;;0.00;0.00;;;;;;;;;;5111842;28;20080;-91
2022/05/13 18:27:25;;;;;;;0.10;0.10;;;;;;;;;;5103044;28;20112;-94
2022/05/13 18:29:52;;;;;;;0.10;0.10;;;;;;;;;;5093797;28;20039;-78
2022/05/13 18:32:18;;;;;;;0.10;0.10;;;;;;;;;;5095496;28;20044;-87
2022/05/13 18:34:44;;;;;;;0.10;0.10;;;;;;;;;;5097405;28;20423;-80
2022/05/13 18:37:16;;;;;;;0.00;0.00;;;;;;;;;;5103471;28;20414;-79
2022/05/13 18:47:58;;;;;;;0.10;0.10;;;;;;;;;;5108572;28;20415;-80
2022/05/13 18:50:24;;;;;;;0.10;0.10;;;;;;;;;;5099437;28;20016;-84
2022/05/13 18:52:51;;;;;;;0.10;0.10;;;;;;;;;;5098134;28;20036;-83
2022/05/13 18:55:17;;;;;;;0.10;0.10;;;;;;;;;;5100647;28;20024;-90
2022/05/13 18:57:43;;;;;;;0.10;0.10;;;;;;;;;;5094158;28;20040;-81
2022/05/13 19:00:09;;;;;;;0.10;0.10;;;;;;;;;;5095249;28;20032;-88
2022/05/13 19:02:35;;;;;;;0.10;0.10;;;;;;;;;;5098988;28;20022;-87
2022/05/13 19:05:01;;;;;;;0.10;0.10;;;;;;;;;;5104134;28;20016;-84
2022/05/13 19:07:27;;;;;;;0.10;0.10;;;;;;;;;;5106299;28;20054;-85
2022/05/13 19:09:53;;;;;;;0.10;0.10;;;;;;;;;;5113201;28;20035;-89
2022/05/13 19:12:19;;;;;;;0.10;0.10;;;;;;;;;;5095979;28;20479;-86
2022/05/13 19:14:45;;;;;;;0.10;0.10;;;;;;;;;;5095163;28;20085;-82
2022/05/13 19:17:11;;;;;;;0.10;0.10;;;;;;;;;;5103400;28;20030;-84
2022/05/13 19:19:38;;;;;;;0.00;0.00;;;;;;;;;;5102197;28;20020;-85
2022/05/13 19:22:04;;;;;;;0.10;0.10;;;;;;;;;;5094764;28;20052;-90
2022/05/13 19:24:31;;;;;;;0.10;0.10;;;;;;;;;;5097457;28;20031;-90
2022/05/13 19:26:57;;;;;;;0.00;0.00;;;;;;;;;;5109000;28;20105;-89
2022/05/13 19:29:23;;;;;;;0.10;0.10;;;;;;;;;;5108653;28;20042;-89
2022/05/13 19:31:49;;;;;;;0.08;0.08;;;;;;;;;;5097868;28;20043;-82
2022/05/13 19:34:15;;;;;;;0.10;0.10;;;;;;;;;;5092564;28;20081;-81
2022/05/13 19:36:41;;;;;;;0.10;0.10;;;;;;;;;;5096215;28;20028;-88
2022/05/13 19:39:07;;;;;;;0.10;0.10;;;;;;;;;;5095392;28;20020;-88
2022/05/13 19:41:35;;;;;;;0.10;0.10;;;;;;;;;;5115230;28;20039;-80
2022/05/13 19:44:02;;;;;;;0.10;0.10;;;;;;;;;;5093910;28;20031;-89
2022/05/13 19:46:32;;;;;;;0.10;0.10;;;;;;;;;;5114346;28;20026;-94
2022/05/13 19:49:00;;;;;;;0.10;0.10;;;;;;;;;;5100397;28;20031;-86
2022/05/13 19:51:27;;;;;;;0.10;0.10;;;;;;;;;;5093079;28;20028;-93
2022/05/13 19:53:53;;;;;;;0.10;0.10;;;;;;;;;;5094870;28;20024;-91
2022/05/13 19:56:19;;;;;;;0.10;0.10;;;;;;;;;;5091996;28;20446;-87
2022/05/13 19:58:46;;;;;;;0.10;0.10;;;;;;;;;;5077340;28;20028;-93
2022/05/13 20:01:12;;;;;;;0.10;0.10;;;;;;;;;;5098273;28;20020;-92
2022/05/13 20:03:39;;;;;;;0.10;0.10;;;;;;;;;;5101194;28;21533;-93
2022/05/13 20:11:36;;;;;;;0.10;0.10;;;;;;;;;;5122923;28;19948;-90
2022/05/13 20:14:04;;;;;;;0.00;0.00;;;;;;;;;;5106623;28;20491;-91
2022/05/13 20:16:31;;;;;;;0.10;0.10;;;;;;;;;;5110925;28;20081;-93
2022/05/13 20:18:57;;;;;;;0.10;0.10;;;;;;;;;;5099225;28;20028;-88
2022/05/13 20:24:08;;;;;;;0.10;0.10;;;;;;;;;;5094432;28;20035;-90
2022/05/13 20:26:34;;;;;;;0.10;0.10;;;;;;;;;;5093914;28;20036;-84
2022/05/13 20:29:02;;;;;;;0.10;0.10;;;;;;;;;;5094352;28;20035;-91
2022/05/13 20:31:30;;;;;;;0.10;0.10;;;;;;;;;;5109407;28;20019;-91
2022/05/13 20:33:57;;;;;;;0.10;0.10;;;;;;;;;;5114480;28;20022;-90
2022/05/13 20:36:24;;;;;;;0.10;0.10;;;;;;;;;;5120055;28;20020;-94
2022/05/13 20:38:51;;;;;;;0.08;0.08;;;;;;;;;;5107130;28;20020;-81
2022/05/13 20:41:18;;;;;;;0.10;0.10;;;;;;;;;;5106292;28;20039;-94
2022/05/13 20:43:44;;;;;;;0.10;0.10;;;;;;;;;;5106460;28;20036;-95
2022/05/13 20:46:13;;;;;;;0.10;0.10;;;;;;;;;;5104503;28;20102;-90
2022/05/13 20:48:39;;;;;;;0.10;0.10;;;;;;;;;;5098845;28;20040;-92
2022/05/13 20:51:06;;;;;;;0.10;0.10;;;;;;;;;;5096405;28;20078;-87
2022/05/13 20:53:32;;;;;;;0.10;0.10;;;;;;;;;;5100920;28;20023;-89
2022/05/13 20:55:58;;;;;;;0.10;0.10;;;;;;;;;;5113070;28;20024;-86
2022/05/13 20:58:24;;;;;;;0.10;0.10;;;;;;;;;;5113074;28;20027;-91
2022/05/13 21:00:50;;;;;;;0.10;0.10;;;;;;;;;;5096773;28;20024;-91
2022/05/13 21:03:16;;;;;;;0.10;0.10;;;;;;;;;;5093089;28;20073;-89
2022/05/13 21:05:44;;;;;;;0.10;0.10;;;;;;;;;;5092820;28;20050;-91
2022/05/13 21:08:11;;;;;;;0.00;0.00;;;;;;;;;;5092972;28;20040;-90
2022/05/13 21:10:37;;;;;;;0.10;0.10;;;;;;;;;;5092364;28;20484;-90
2022/05/13 21:13:04;;;;;;;0.00;0.00;;;;;;;;;;5092852;28;20023;-89
2022/05/13 21:15:30;;;;;;;0.10;0.10;;;;;;;;;;5092795;28;20471;-90
2022/05/13 21:17:56;;;;;;;0.10;0.10;;;;;;;;;;5092511;28;20052;-82
2022/05/13 21:20:22;;;;;;;0.08;0.08;;;;;;;;;;5093464;28;20020;-81
2022/05/13 21:22:49;;;;;;;0.10;0.10;;;;;;;;;;5093034;28;20031;-89
2022/05/13 21:25:16;;;;;;;0.00;0.00;;;;;;;;;;5091984;28;20099;-82
2022/05/13 21:27:42;;;;;;;0.10;0.10;;;;;;;;;;5091904;28;20050;-83
2022/05/13 21:30:08;;;;;;;0.05;0.05;;;;;;;;;;5093286;28;20016;-85
2022/05/13 21:38:04;;;;;;;0.10;0.10;;;;;;;;;;5092742;28;20035;-85
2022/05/13 21:40:30;;;;;;;0.10;0.10;;;;;;;;;;5092786;28;20095;-94
2022/05/13 21:42:56;;;;;;;0.15;0.15;;;;;;;;;;5092711;28;20027;-91
2022/05/13 21:45:23;;;;;;;0.10;0.10;;;;;;;;;;5091698;28;20028;-94
2022/05/13 21:47:50;;;;;;;0.10;0.10;;;;;;;;;;5092648;28;20040;-95
2022/05/13 21:50:16;;;;;;;0.00;0.00;;;;;;;;;;5093943;28;20028;-93
2022/05/13 21:52:42;;;;;;;0.10;0.10;;;;;;;;;;5093671;28;20103;-91
2022/05/13 21:55:09;;;;;;;0.10;0.10;;;;;;;;;;5112345;28;20073;-91
2022/05/13 21:57:35;;;;;;;0.10;0.10;;;;;;;;;;5113269;28;20050;-87
2022/05/13 22:00:01;;;;;;;0.10;0.10;;;;;;;;;;5112711;28;20027;-90
2022/05/13 22:02:27;;;;;;;0.10;0.10;;;;;;;;;;5119712;28;20027;-92
2022/05/13 22:04:53;;;;;;;0.10;0.10;;;;;;;;;;5133744;28;20055;-80
2022/05/13 22:07:20;;;;;;;0.10;0.10;;;;;;;;;;5136165;28;20055;-79
2022/05/13 22:09:46;;;;;;;0.03;0.03;;;;;;;;;;5130677;28;20037;-90
2022/05/13 22:12:12;;;;;;;0.10;0.10;;;;;;;;;;5122202;28;20024;-96
2022/05/13 22:14:38;;;;;;;0.10;0.10;;;;;;;;;;5114381;28;20016;-79
2022/05/13 22:17:04;;;;;;;0.10;0.10;;;;;;;;;;5114418;28;20044;-93
2022/05/13 22:19:30;;;;;;;0.10;0.10;;;;;;;;;;5109887;28;20028;-94
2022/05/13 22:21:56;;;;;;;0.10;0.10;;;;;;;;;;5097331;28;20032;-94
2022/05/13 22:24:23;;;;;;;0.10;0.10;;;;;;;;;;5096100;28;20027;-82
2022/05/13 22:26:49;;;;;;;0.10;0.10;;;;;;;;;;5091162;28;20039;-80
2022/05/13 22:29:16;;;;;;;0.10;0.10;;;;;;;;;;5091424;28;20028;-81
2022/05/13 22:31:43;;;;;;;0.10;0.10;;;;;;;;;;5090980;28;20553;-80
2022/05/13 22:34:09;;;;;;;0.10;0.10;;;;;;;;;;5091305;28;20055;-79
2022/05/13 22:36:35;;;;;;;0.10;0.10;;;;;;;;;;5090911;28;20085;-79
2022/05/13 22:39:01;;;;;;;0.05;0.05;;;;;;;;;;5107104;28;20036;-80
2022/05/13 22:41:27;;;;;;;0.05;0.05;;;;;;;;;;5111594;28;20023;-80
2022/05/13 22:43:53;;;;;;;0.10;0.10;;;;;;;;;;5111482;28;20471;-81
2022/05/13 22:46:20;;;;;;;0.10;0.10;;;;;;;;;;5111652;28;20391;-80
2022/05/13 22:48:46;;;;;;;0.10;0.10;;;;;;;;;;5111095;28;20501;-79
2022/05/13 22:51:13;;;;;;;0.00;0.00;;;;;;;;;;5111423;28;20024;-81
2022/05/13 22:53:39;;;;;;;0.10;0.10;;;;;;;;;;5111016;28;20386;-84
2022/05/13 22:56:06;;;;;;;0.10;0.10;;;;;;;;;;5111343;28;20093;-84
2022/05/13 22:58:34;;;;;;;0.10;0.10;;;;;;;;;;5111348;28;20020;-81
2022/05/13 23:01:00;;;;;;;0.10;0.10;;;;;;;;;;5109195;28;20525;-82
2022/05/13 23:03:26;;;;;;;0.10;0.10;;;;;;;;;;5111849;28;20024;-86
2022/05/13 23:11:25;;;;;;;;;;;;;;;;;;5094223;28;20047;-82
2022/05/13 23:13:52;;;;;;;0.10;0.10;;;;;;;;;;5090883;28;19912;-81
2022/05/13 23:16:19;;;;;;;0.10;0.10;;;;;;;;;;5093118;28;20031;-81
2022/05/13 23:18:45;;;;;;;0.10;0.10;;;;;;;;;;5101932;28;20059;-79
2022/05/13 23:21:12;;;;;;;0.10;0.10;;;;;;;;;;5116437;28;20047;-79
2022/05/13 23:23:40;;;;;;;0.93;0.93;;;;;;;;;;5115975;28;20471;-80
2022/05/13 23:26:06;;;;;;;0.10;0.10;;;;;;;;;;5115987;28;20022;-79
2022/05/13 23:28:32;;;;;;;0.10;0.10;;;;;;;;;;5111961;28;20494;-80
2022/05/13 23:30:59;;;;;;;0.10;0.10;;;;;;;;;;5093237;28;20404;-79
2022/05/13 23:33:25;;;;;;;0.10;0.10;;;;;;;;;;5095237;28;20028;-80
2022/05/13 23:35:51;;;;;;;0.10;0.10;;;;;;;;;;5094602;28;20559;-79
2022/05/13 23:38:17;;;;;;;0.10;0.10;;;;;;;;;;5095154;28;20055;-79
2022/05/13 23:40:44;;;;;;;0.05;0.05;;;;;;;;;;5095195;28;20475;-79
2022/05/13 23:43:10;;;;;;;0.10;0.10;;;;;;;;;;5097695;28;20028;-80
2022/05/13 23:45:36;;;;;;;0.10;0.10;;;;;;;;;;5115792;28;20050;-79
2022/05/13 23:48:03;;;;;;;0.10;0.10;;;;;;;;;;5116219;28;20031;-79
2022/05/13 23:50:29;;;;;;;0.10;0.10;;;;;;;;;;5115621;28;20098;-80
2022/05/13 23:58:25;;;;;;;0.10;0.10;;;;;;;;;;5109278;28;20039;-79
